TJNR/NRR METAR and TAF weather

Enter ICAO airport designator
Station Type Date Time Source
TJNR METAR 2021/01/16 01:53 UTC NOAA

TJNR 160153Z AUTO 09003KT 10SM FEW043 25/22 A3002 RMK AO2 SLP164 T02500222


Station Type Date Time Source
TJNR Decoded METAR 2021/01/16 01:53 UTC NOAA

ROOSEVELT ROADS PUERTO RICO, PR, United States (TJNR) 18-15N 65-38W 10M
Jan 15, 2021 - 08:53 PM EST / 2021.01.16 0153 UTC
Wind: from the E (090 degrees) at 3 MPH (3 KT):0
Visibility: 10 mile(s):0
Sky conditions: mostly clear
Temperature: 77.0 F (25.0 C)
Dew Point: 72.0 F (22.2 C)
Relative Humidity: 84%
Pressure (altimeter): 30.02 in. Hg (1016 hPa)
ob: TJNR 160153Z AUTO 09003KT 10SM FEW043 25/22 A3002 RMK AO2 SLP164 T02500222
cycle: 2

Station Type Date Time Source
TJNR TAF UTC NOAA

Error!

Example: see airport list